sensor_id;sensor_type;location;lat;lon;timestamp;pressure;altitude;pressure_sealevel;temperature;humidity
13314;BME280;6725;48.112;11.604;2023-03-25T00:01:28;94507.81;;;8.93;100.00
13314;BME280;6725;48.112;11.604;2023-03-25T00:03:58;94512.53;;;8.89;100.00
13314;BME280;6725;48.112;11.604;2023-03-25T00:06:26;94509.41;;;8.90;100.00
13314;BME280;6725;48.112;11.604;2023-03-25T00:08:52;94512.13;;;8.90;100.00
13314;BME280;6725;48.112;11.604;2023-03-25T00:11:17;94516.81;;;8.86;100.00
13314;BME280;6725;48.112;11.604;2023-03-25T00:13:42;94505.13;;;8.89;100.00
13314;BME280;6725;48.112;11.604;2023-03-25T00:16:09;94507.50;;;8.87;100.00
13314;BME280;6725;48.112;11.604;2023-03-25T00:18:34;94510.34;;;8.80;100.00
13314;BME280;6725;48.112;11.604;2023-03-25T00:21:03;94513.50;;;8.75;100.00
13314;BME280;6725;48.112;11.604;2023-03-25T00:23:30;94511.25;;;8.70;100.00
13314;BME280;6725;48.112;11.604;2023-03-25T00:25:56;94501.19;;;8.67;100.00
13314;BME280;6725;48.112;11.604;2023-03-25T00:28:27;94502.44;;;8.63;100.00
13314;BME280;6725;48.112;11.604;2023-03-25T00:30:57;94497.41;;;8.61;100.00
13314;BME280;6725;48.112;11.604;2023-03-25T00:33:23;94497.41;;;8.61;100.00
13314;BME280;6725;48.112;11.604;2023-03-25T00:35:51;94507.75;;;8.70;100.00
13314;BME280;6725;48.112;11.604;2023-03-25T00:38:19;94513.56;;;8.72;100.00
13314;BME280;6725;48.112;11.604;2023-03-25T00:40:44;94509.72;;;8.69;100.00
13314;BME280;6725;48.112;11.604;2023-03-25T00:43:11;94507.75;;;8.70;100.00
13314;BME280;6725;48.112;11.604;2023-03-25T00:45:36;94518.19;;;8.75;100.00
13314;BME280;6725;48.112;11.604;2023-03-25T00:48:02;94522.09;;;8.74;100.00
13314;BME280;6725;48.112;11.604;2023-03-25T00:50:27;94525.13;;;8.79;100.00
13314;BME280;6725;48.112;11.604;2023-03-25T00:52:52;94535.13;;;8.86;100.00
13314;BME280;6725;48.112;11.604;2023-03-25T00:55:18;94542.66;;;-97.03;100.00
13314;BME280;6725;48.112;11.604;2023-03-25T00:57:44;94563.16;;;9.09;100.00
13314;BME280;6725;48.112;11.604;2023-03-25T01:00:12;94562.66;;;9.14;100.00
13314;BME280;6725;48.112;11.604;2023-03-25T01:02:39;94573.44;;;9.21;100.00
13314;BME280;6725;48.112;11.604;2023-03-25T01:05:05;94577.13;;;9.34;100.00
13314;BME280;6725;48.112;11.604;2023-03-25T01:07:31;94595.31;;;9.41;100.00
13314;BME280;6725;48.112;11.604;2023-03-25T01:09:57;94600.28;;;9.46;100.00
13314;BME280;6725;48.112;11.604;2023-03-25T01:12:23;94603.31;;;9.51;100.00
13314;BME280;6725;48.112;11.604;2023-03-25T01:14:49;94610.75;;;9.47;100.00
13314;BME280;6725;48.112;11.604;2023-03-25T01:17:14;94618.94;;;9.47;100.00
13314;BME280;6725;48.112;11.604;2023-03-25T01:19:40;94611.19;;;9.46;100.00
13314;BME280;6725;48.112;11.604;2023-03-25T01:22:05;94608.75;;;9.51;100.00
13314;BME280;6725;48.112;11.604;2023-03-25T01:24:31;94624.28;;;9.54;100.00
13314;BME280;6725;48.112;11.604;2023-03-25T01:26:57;94621.56;;;9.54;100.00
13314;BME280;6725;48.112;11.604;2023-03-25T01:29:22;94619.19;;;9.56;100.00
13314;BME280;6725;48.112;11.604;2023-03-25T01:31:48;94611.00;;;9.56;100.00
13314;BME280;6725;48.112;11.604;2023-03-25T01:34:14;94628.91;;;9.57;100.00
13314;BME280;6725;48.112;11.604;2023-03-25T01:36:40;94629.25;;;9.59;100.00
13314;BME280;6725;48.112;11.604;2023-03-25T01:39:10;94623.09;;;9.55;100.00
13314;BME280;6725;48.112;11.604;2023-03-25T01:41:36;94622.34;;;9.55;100.00
13314;BME280;6725;48.112;11.604;2023-03-25T01:44:07;94634.41;;;9.54;100.00
13314;BME280;6725;48.112;11.604;2023-03-25T01:46:34;94623.44;;;9.57;100.00
13314;BME280;6725;48.112;11.604;2023-03-25T01:49:01;94621.81;;;9.63;100.00
13314;BME280;6725;48.112;11.604;2023-03-25T01:51:31;94620.94;;;9.66;100.00
13314;BME280;6725;48.112;11.604;2023-03-25T01:53:59;94630.69;;;9.67;100.00
13314;BME280;6725;48.112;11.604;2023-03-25T01:56:29;94629.00;;;9.73;100.00
13314;BME280;6725;48.112;11.604;2023-03-25T01:58:58;94637.56;;;9.75;100.00
13314;BME280;6725;48.112;11.604;2023-03-25T02:01:25;94635.44;;;9.83;100.00
13314;BME280;6725;48.112;11.604;2023-03-25T02:03:53;94661.84;;;9.89;100.00
13314;BME280;6725;48.112;11.604;2023-03-25T02:06:31;94655.25;;;9.87;100.00
13314;BME280;6725;48.112;11.604;2023-03-25T02:09:01;94651.69;;;9.90;100.00
13314;BME280;6725;48.112;11.604;2023-03-25T02:11:29;94652.59;;;9.83;100.00
13314;BME280;6725;48.112;11.604;2023-03-25T02:13:56;94643.22;;;9.84;100.00
13314;BME280;6725;48.112;11.604;2023-03-25T02:16:31;94642.88;;;9.82;100.00
13314;BME280;6725;48.112;11.604;2023-03-25T02:25:16;94614.63;;;9.73;100.00
13314;BME280;6725;48.112;11.604;2023-03-25T02:36:11;94621.25;;;9.49;100.00
13314;BME280;6725;48.112;11.604;2023-03-25T02:39:01;94610.53;;;9.38;100.00
13314;BME280;6725;48.112;11.604;2023-03-25T02:41:52;94612.19;;;9.32;100.00
13314;BME280;6725;48.112;11.604;2023-03-25T02:47:03;94610.88;;;9.17;100.00
13314;BME280;6725;48.112;11.604;2023-03-25T02:49:34;94612.88;;;9.13;100.00
13314;BME280;6725;48.112;11.604;2023-03-25T02:52:23;94617.50;;;9.16;100.00
13314;BME280;6725;48.112;11.604;2023-03-25T02:54:51;94637.88;;;9.08;100.00
13314;BME280;6725;48.112;11.604;2023-03-25T02:57:22;94633.59;;;9.07;100.00
13314;BME280;6725;48.112;11.604;2023-03-25T02:59:50;94630.88;;;9.07;100.00
13314;BME280;6725;48.112;11.604;2023-03-25T03:02:20;94620.44;;;9.02;100.00
13314;BME280;6725;48.112;11.604;2023-03-25T03:04:50;94630.53;;;9.05;100.00
13314;BME280;6725;48.112;11.604;2023-03-25T03:07:26;94630.22;;;9.00;100.00
13314;BME280;6725;48.112;11.604;2023-03-25T03:10:22;94624.41;;;8.98;100.00
13314;BME280;6725;48.112;11.604;2023-03-25T03:13:06;94612.75;;;8.97;100.00
13314;BME280;6725;48.112;11.604;2023-03-25T03:15:37;94606.44;;;9.04;100.00
13314;BME280;6725;48.112;11.604;2023-03-25T03:18:32;94605.94;;;9.09;100.00
13314;BME280;6725;48.112;11.604;2023-03-25T03:26:35;94609.19;;;9.00;100.00
13314;BME280;6725;48.112;11.604;2023-03-25T03:29:15;94619.34;;;8.96;100.00
13314;BME280;6725;48.112;11.604;2023-03-25T03:31:46;94631.47;;;8.92;100.00
13314;BME280;6725;48.112;11.604;2023-03-25T03:34:33;94626.56;;;8.83;100.00
13314;BME280;6725;48.112;11.604;2023-03-25T03:37:05;94623.13;;;8.79;100.00
13314;BME280;6725;48.112;11.604;2023-03-25T03:39:34;94621.56;;;8.78;100.00
13314;BME280;6725;48.112;11.604;2023-03-25T03:42:21;94623.22;;;8.72;100.00
13314;BME280;6725;48.112;11.604;2023-03-25T03:44:55;94610.13;;;8.64;100.00
13314;BME280;6725;48.112;11.604;2023-03-25T03:47:25;94607.81;;;8.62;100.00
13314;BME280;6725;48.112;11.604;2023-03-25T03:49:56;94614.03;;;8.63;100.00
13314;BME280;6725;48.112;11.604;2023-03-25T03:52:36;94609.84;;;8.55;100.00
13314;BME280;6725;48.112;11.604;2023-03-25T03:55:09;94599.34;;;8.53;100.00
13314;BME280;6725;48.112;11.604;2023-03-25T03:57:50;94610.69;;;8.52;100.00
13314;BME280;6725;48.112;11.604;2023-03-25T04:00:25;94622.00;;;8.47;100.00
13314;BME280;6725;48.112;11.604;2023-03-25T04:02:56;94615.03;;;8.42;100.00
13314;BME280;6725;48.112;11.604;2023-03-25T04:05:24;94635.19;;;8.48;100.00
13314;BME280;6725;48.112;11.604;2023-03-25T04:08:01;94626.78;;;8.39;100.00
13314;BME280;6725;48.112;11.604;2023-03-25T04:10:49;94628.44;;;8.30;100.00
13314;BME280;6725;48.112;11.604;2023-03-25T04:13:20;94628.06;;;8.28;100.00
13314;BME280;6725;48.112;11.604;2023-03-25T04:15:46;94637.03;;;8.25;100.00
13314;BME280;6725;48.112;11.604;2023-03-25T04:18:12;94621.56;;;8.18;100.00
13314;BME280;6725;48.112;11.604;2023-03-25T04:20:38;94627.78;;;8.15;100.00
13314;BME280;6725;48.112;11.604;2023-03-25T04:23:10;94632.50;;;8.11;100.00
13314;BME280;6725;48.112;11.604;2023-03-25T04:25:42;94639.84;;;8.14;100.00
13314;BME280;6725;48.112;11.604;2023-03-25T04:28:08;94643.78;;;8.10;100.00
13314;BME280;6725;48.112;11.604;2023-03-25T04:30:38;94638.03;;;8.04;100.00
13314;BME280;6725;48.112;11.604;2023-03-25T04:33:04;94640.75;;;8.04;100.00
13314;BME280;6725;48.112;11.604;2023-03-25T04:35:30;94639.94;;;8.07;100.00
13314;BME280;6725;48.112;11.604;2023-03-25T04:37:57;94633.75;;;8.03;100.00
13314;BME280;6725;48.112;11.604;2023-03-25T04:40:23;94640.38;;;8.02;100.00
13314;BME280;6725;48.112;11.604;2023-03-25T04:42:50;94638.81;;;8.05;100.00
13314;BME280;6725;48.112;11.604;2023-03-25T04:45:17;94655.44;;;8.10;100.00
13314;BME280;6725;48.112;11.604;2023-03-25T04:47:45;94660.03;;;8.17;100.00
13314;BME280;6725;48.112;11.604;2023-03-25T04:50:22;94668.13;;;8.20;100.00
13314;BME280;6725;48.112;11.604;2023-03-25T04:52:49;94678.94;;;8.31;100.00
13314;BME280;6725;48.112;11.604;2023-03-25T04:55:19;94675.72;;;8.39;100.00
13314;BME280;6725;48.112;11.604;2023-03-25T04:57:45;94691.97;;;8.46;100.00
13314;BME280;6725;48.112;11.604;2023-03-25T05:00:12;94689.66;;;8.45;100.00
13314;BME280;6725;48.112;11.604;2023-03-25T05:02:43;94681.94;;;8.40;100.00
13314;BME280;6725;48.112;11.604;2023-03-25T05:05:10;94674.09;;;8.45;100.00
13314;BME280;6725;48.112;11.604;2023-03-25T05:07:46;94674.91;;;8.42;100.00
13314;BME280;6725;48.112;11.604;2023-03-25T05:10:14;94674.53;;;8.40;100.00
13314;BME280;6725;48.112;11.604;2023-03-25T05:12:39;94670.63;;;8.41;100.00
13314;BME280;6725;48.112;11.604;2023-03-25T05:15:06;94672.63;;;8.37;100.00
13314;BME280;6725;48.112;11.604;2023-03-25T05:17:31;94681.19;;;8.36;100.00
13314;BME280;6725;48.112;11.604;2023-03-25T05:19:57;94670.28;;;8.39;100.00
13314;BME280;6725;48.112;11.604;2023-03-25T05:22:22;94680.34;;;8.42;100.00
13314;BME280;6725;48.112;11.604;2023-03-25T05:24:47;94678.81;;;8.41;100.00
13314;BME280;6725;48.112;11.604;2023-03-25T05:27:14;94676.41;;;8.47;100.00
13314;BME280;6725;48.112;11.604;2023-03-25T05:29:44;94679.22;;;8.70;100.00
13314;BME280;6725;48.112;11.604;2023-03-25T05:32:09;94697.06;;;8.74;100.00
13314;BME280;6725;48.112;11.604;2023-03-25T05:34:38;94699.03;;;8.74;100.00
13314;BME280;6725;48.112;11.604;2023-03-25T05:37:03;94701.69;;;8.77;100.00
13314;BME280;6725;48.112;11.604;2023-03-25T05:39:31;94712.25;;;9.02;100.00
13314;BME280;6725;48.112;11.604;2023-03-25T05:41:57;94721.19;;;9.55;100.00
13314;BME280;6725;48.112;11.604;2023-03-25T05:44:27;94735.00;;;10.18;100.00
13314;BME280;6725;48.112;11.604;2023-03-25T05:46:52;94746.63;;;10.84;100.00
13314;BME280;6725;48.112;11.604;2023-03-25T05:49:18;94771.19;;;11.62;100.00
13314;BME280;6725;48.112;11.604;2023-03-25T05:51:43;94771.06;;;12.17;100.00
13314;BME280;6725;48.112;11.604;2023-03-25T05:54:09;94771.44;;;12.63;100.00
13314;BME280;6725;48.112;11.604;2023-03-25T05:56:35;94779.72;;;12.76;100.00
13314;BME280;6725;48.112;11.604;2023-03-25T05:59:01;94800.09;;;12.59;100.00
13314;BME280;6725;48.112;11.604;2023-03-25T06:01:27;94800.28;;;12.04;100.00
13314;BME280;6725;48.112;11.604;2023-03-25T06:03:54;94816.56;;;11.40;100.00
13314;BME280;6725;48.112;11.604;2023-03-25T06:06:19;94806.47;;;10.98;100.00
13314;BME280;6725;48.112;11.604;2023-03-25T06:08:46;94806.16;;;10.73;100.00
13314;BME280;6725;48.112;11.604;2023-03-25T06:11:15;94823.81;;;10.45;100.00
13314;BME280;6725;48.112;11.604;2023-03-25T06:13:41;94831.28;;;10.18;100.00
13314;BME280;6725;48.112;11.604;2023-03-25T06:16:23;94824.22;;;9.94;100.00
13314;BME280;6725;48.112;11.604;2023-03-25T06:18:52;94818.94;;;9.83;100.00
13314;BME280;6725;48.112;11.604;2023-03-25T06:21:21;94835.06;;;9.71;100.00
13314;BME280;6725;48.112;11.604;2023-03-25T06:23:48;94836.56;;;9.75;100.00
13314;BME280;6725;48.112;11.604;2023-03-25T06:26:18;94841.22;;;9.78;100.00
13314;BME280;6725;48.112;11.604;2023-03-25T06:28:44;94832.00;;;9.69;100.00
13314;BME280;6725;48.112;11.604;2023-03-25T06:31:18;94836.84;;;9.58;100.00
13314;BME280;6725;48.112;11.604;2023-03-25T06:33:45;94839.59;;;9.54;100.00
13314;BME280;6725;48.112;11.604;2023-03-25T06:36:12;94848.66;;;9.44;100.00
13314;BME280;6725;48.112;11.604;2023-03-25T06:38:39;94852.25;;;9.38;100.00
13314;BME280;6725;48.112;11.604;2023-03-25T06:41:05;94862.03;;;9.35;100.00
13314;BME280;6725;48.112;11.604;2023-03-25T06:43:32;94862.13;;;9.28;100.00
13314;BME280;6725;48.112;11.604;2023-03-25T06:45:57;94884.00;;;9.21;100.00
13314;BME280;6725;48.112;11.604;2023-03-25T06:48:23;94887.97;;;9.13;100.00
13314;BME280;6725;48.112;11.604;2023-03-25T06:50:49;94882.53;;;9.13;100.00
13314;BME280;6725;48.112;11.604;2023-03-25T06:53:14;94874.06;;;9.04;100.00
13314;BME280;6725;48.112;11.604;2023-03-25T06:55:39;94875.75;;;8.91;100.00
13314;BME280;6725;48.112;11.604;2023-03-25T06:58:08;94884.34;;;8.86;100.00
13314;BME280;6725;48.112;11.604;2023-03-25T07:00:33;94884.41;;;8.83;100.00
13314;BME280;6725;48.112;11.604;2023-03-25T07:02:59;94887.53;;;8.81;100.00
13314;BME280;6725;48.112;11.604;2023-03-25T07:05:25;94890.25;;;8.81;100.00
13314;BME280;6725;48.112;11.604;2023-03-25T07:07:51;94888.34;;;8.78;100.00
13314;BME280;6725;48.112;11.604;2023-03-25T07:10:16;94889.78;;;8.90;100.00
13314;BME280;6725;48.112;11.604;2023-03-25T07:12:42;94889.66;;;9.00;100.00
13314;BME280;6725;48.112;11.604;2023-03-25T07:15:07;94882.97;;;9.08;100.00
13314;BME280;6725;48.112;11.604;2023-03-25T07:17:33;94869.97;;;9.23;100.00
13314;BME280;6725;48.112;11.604;2023-03-25T07:19:58;94883.03;;;9.35;100.00
13314;BME280;6725;48.112;11.604;2023-03-25T07:22:23;94894.56;;;9.49;100.00
13314;BME280;6725;48.112;11.604;2023-03-25T07:24:49;94892.97;;;9.52;100.00
13314;BME280;6725;48.112;11.604;2023-03-25T07:27:16;94900.69;;;9.57;100.00
13314;BME280;6725;48.112;11.604;2023-03-25T07:29:41;94912.06;;;9.48;100.00
13314;BME280;6725;48.112;11.604;2023-03-25T07:32:06;94910.03;;;9.26;100.00
13314;BME280;6725;48.112;11.604;2023-03-25T07:34:32;94910.44;;;9.21;100.00
13314;BME280;6725;48.112;11.604;2023-03-25T07:36:58;94918.38;;;9.08;100.00
13314;BME280;6725;48.112;11.604;2023-03-25T07:39:23;94918.28;;;9.19;100.00
13314;BME280;6725;48.112;11.604;2023-03-25T07:41:52;94914.69;;;9.25;100.00
13314;BME280;6725;48.112;11.604;2023-03-25T07:44:19;94920.88;;;9.29;100.00
13314;BME280;6725;48.112;11.604;2023-03-25T07:46:46;94923.56;;;9.33;100.00
13314;BME280;6725;48.112;11.604;2023-03-25T07:49:12;94910.34;;;9.31;100.00
13314;BME280;6725;48.112;11.604;2023-03-25T07:51:38;94922.53;;;9.53;100.00
13314;BME280;6725;48.112;11.604;2023-03-25T07:54:03;94926.63;;;9.68;100.00
13314;BME280;6725;48.112;11.604;2023-03-25T07:56:29;94920.13;;;9.59;100.00
13314;BME280;6725;48.112;11.604;2023-03-25T07:58:54;94929.00;;;9.66;100.00
13314;BME280;6725;48.112;11.604;2023-03-25T08:01:19;94917.72;;;9.94;100.00
13314;BME280;6725;48.112;11.604;2023-03-25T08:03:45;94929.31;;;10.02;100.00
13314;BME280;6725;48.112;11.604;2023-03-25T08:06:10;94926.38;;;10.20;100.00
13314;BME280;6725;48.112;11.604;2023-03-25T08:08:36;94934.97;;;10.68;100.00
13314;BME280;6725;48.112;11.604;2023-03-25T08:11:01;94930.56;;;11.62;100.00
13314;BME280;6725;48.112;11.604;2023-03-25T08:13:27;94918.81;;;13.16;100.00
13314;BME280;6725;48.112;11.604;2023-03-25T08:15:52;94931.59;;;13.07;100.00
13314;BME280;6725;48.112;11.604;2023-03-25T08:18:18;94926.81;;;12.79;100.00
13314;BME280;6725;48.112;11.604;2023-03-25T08:20:44;94937.69;;;12.15;100.00
13314;BME280;6725;48.112;11.604;2023-03-25T08:23:09;94943.16;;;12.15;100.00
13314;BME280;6725;48.112;11.604;2023-03-25T08:25:37;94929.56;;;11.92;100.00
13314;BME280;6725;48.112;11.604;2023-03-25T08:28:04;94936.38;;;11.84;100.00
13314;BME280;6725;48.112;11.604;2023-03-25T08:30:33;94923.78;;;11.47;100.00
13314;BME280;6725;48.112;11.604;2023-03-25T08:33:07;94921.75;;;11.32;100.00
13314;BME280;6725;48.112;11.604;2023-03-25T08:35:35;94919.88;;;11.29;100.00
13314;BME280;6725;48.112;11.604;2023-03-25T08:38:01;94915.47;;;11.54;100.00
13314;BME280;6725;48.112;11.604;2023-03-25T08:40:30;94926.63;;;11.44;100.00
13314;BME280;6725;48.112;11.604;2023-03-25T08:42:55;94925.19;;;11.16;100.00
13314;BME280;6725;48.112;11.604;2023-03-25T08:45:21;94908.16;;;10.86;100.00
13314;BME280;6725;48.112;11.604;2023-03-25T08:47:47;94917.66;;;10.78;100.00
13314;BME280;6725;48.112;11.604;2023-03-25T08:50:12;94920.03;;;10.76;100.00
13314;BME280;6725;48.112;11.604;2023-03-25T08:52:37;94916.94;;;10.97;100.00
13314;BME280;6725;48.112;11.604;2023-03-25T08:55:04;94925.72;;;11.08;100.00
13314;BME280;6725;48.112;11.604;2023-03-25T08:57:33;94927.06;;;11.19;100.00
13314;BME280;6725;48.112;11.604;2023-03-25T08:59:58;94924.28;;;11.42;100.00
13314;BME280;6725;48.112;11.604;2023-03-25T09:02:24;94922.81;;;11.38;100.00
13314;BME280;6725;48.112;11.604;2023-03-25T09:04:50;94923.63;;;11.15;100.00
13314;BME280;6725;48.112;11.604;2023-03-25T09:07:15;94919.88;;;11.06;100.00
13314;BME280;6725;48.112;11.604;2023-03-25T09:09:44;94930.59;;;10.97;100.00
13314;BME280;6725;48.112;11.604;2023-03-25T09:12:09;94915.19;;;11.06;100.00
13314;BME280;6725;48.112;11.604;2023-03-25T09:14:35;94922.81;;;10.95;100.00
13314;BME280;6725;48.112;11.604;2023-03-25T09:17:00;94926.53;;;11.05;100.00
13314;BME280;6725;48.112;11.604;2023-03-25T09:19:25;94924.75;;;11.18;100.00
13314;BME280;6725;48.112;11.604;2023-03-25T09:21:51;94913.28;;;11.46;100.00
13314;BME280;6725;48.112;11.604;2023-03-25T09:24:16;94910.16;;;11.67;100.00
13314;BME280;6725;48.112;11.604;2023-03-25T09:26:42;94909.06;;;12.35;100.00
13314;BME280;6725;48.112;11.604;2023-03-25T09:29:07;94910.84;;;13.79;100.00
13314;BME280;6725;48.112;11.604;2023-03-25T09:31:33;94903.72;;;14.35;100.00
13314;BME280;6725;48.112;11.604;2023-03-25T09:33:59;94904.88;;;15.43;100.00
13314;BME280;6725;48.112;11.604;2023-03-25T09:36:24;94906.03;;;16.19;100.00
13314;BME280;6725;48.112;11.604;2023-03-25T09:38:49;94900.16;;;15.87;100.00
13314;BME280;6725;48.112;11.604;2023-03-25T09:41:31;94894.72;;;15.19;100.00
13314;BME280;6725;48.112;11.604;2023-03-25T09:47:19;94889.09;;;14.26;100.00
13314;BME280;6725;48.112;11.604;2023-03-25T09:49:47;94889.44;;;14.40;100.00
13314;BME280;6725;48.112;11.604;2023-03-25T09:52:21;94888.44;;;15.18;100.00
13314;BME280;6725;48.112;11.604;2023-03-25T09:54:51;94896.34;;;15.16;100.00
13314;BME280;6725;48.112;11.604;2023-03-25T09:57:22;94888.88;;;16.15;100.00
13314;BME280;6725;48.112;11.604;2023-03-25T09:59:52;94889.91;;;15.44;100.00
13314;BME280;6725;48.112;11.604;2023-03-25T10:02:33;94879.47;;;15.39;100.00
13314;BME280;6725;48.112;11.604;2023-03-25T10:10:54;94886.22;;;14.67;100.00
13314;BME280;6725;48.112;11.604;2023-03-25T10:19:27;94865.31;;;14.07;100.00
13314;BME280;6725;48.112;11.604;2023-03-25T10:24:33;94853.91;;;14.08;100.00
13314;BME280;6725;48.112;11.604;2023-03-25T10:27:07;94850.63;;;14.26;100.00
13314;BME280;6725;48.112;11.604;2023-03-25T10:29:40;94851.03;;;13.99;100.00
13314;BME280;6725;48.112;11.604;2023-03-25T10:32:28;94838.38;;;13.64;100.00
13314;BME280;6725;48.112;11.604;2023-03-25T10:34:56;94846.63;;;13.36;100.00
13314;BME280;6725;48.112;11.604;2023-03-25T10:37:33;94851.09;;;13.29;100.00
13314;BME280;6725;48.112;11.604;2023-03-25T10:40:27;94835.63;;;13.64;100.00
13314;BME280;6725;48.112;11.604;2023-03-25T10:43:09;94844.72;;;13.61;100.00
13314;BME280;6725;48.112;11.604;2023-03-25T10:45:40;94840.91;;;13.30;100.00
13314;BME280;6725;48.112;11.604;2023-03-25T10:48:13;94848.09;;;12.95;100.00
13314;BME280;6725;48.112;11.604;2023-03-25T10:50:40;94854.72;;;12.82;100.00
13314;BME280;6725;48.112;11.604;2023-03-25T10:53:15;94853.09;;;12.52;100.00
13314;BME280;6725;48.112;11.604;2023-03-25T10:55:43;94843.47;;;12.76;100.00
13314;BME280;6725;48.112;11.604;2023-03-25T10:58:15;94844.06;;;13.00;100.00
13314;BME280;6725;48.112;11.604;2023-03-25T11:00:42;94843.97;;;13.03;100.00
13314;BME280;6725;48.112;11.604;2023-03-25T11:03:21;94840.47;;;13.03;100.00
13314;BME280;6725;48.112;11.604;2023-03-25T11:05:50;94834.78;;;13.10;100.00
13314;BME280;6725;48.112;11.604;2023-03-25T11:08:19;94828.53;;;13.38;100.00
13314;BME280;6725;48.112;11.604;2023-03-25T11:10:50;94833.63;;;14.43;100.00
13314;BME280;6725;48.112;11.604;2023-03-25T11:13:29;94829.25;;;14.80;100.00
13314;BME280;6725;48.112;11.604;2023-03-25T11:15:57;94821.38;;;15.03;100.00
13314;BME280;6725;48.112;11.604;2023-03-25T11:18:34;94818.16;;;15.39;100.00
13314;BME280;6725;48.112;11.604;2023-03-25T11:21:10;94817.00;;;14.93;100.00
13314;BME280;6725;48.112;11.604;2023-03-25T11:23:46;94811.88;;;14.24;100.00
13314;BME280;6725;48.112;11.604;2023-03-25T11:28:48;94806.75;;;13.72;100.00
13314;BME280;6725;48.112;11.604;2023-03-25T11:31:25;94799.09;;;13.67;100.00
13314;BME280;6725;48.112;11.604;2023-03-25T11:36:37;94795.25;;;13.65;100.00
13314;BME280;6725;48.112;11.604;2023-03-25T11:41:47;94799.44;;;13.28;100.00
13314;BME280;6725;48.112;11.604;2023-03-25T11:44:27;94790.19;;;13.22;100.00
13314;BME280;6725;48.112;11.604;2023-03-25T11:47:00;94782.22;;;12.99;100.00
13314;BME280;6725;48.112;11.604;2023-03-25T11:49:28;94771.91;;;13.19;100.00
13314;BME280;6725;48.112;11.604;2023-03-25T11:51:58;94770.84;;;13.54;100.00
13314;BME280;6725;48.112;11.604;2023-03-25T11:54:26;94781.72;;;13.45;100.00
13314;BME280;6725;48.112;11.604;2023-03-25T11:56:53;94779.09;;;13.54;100.00
13314;BME280;6725;48.112;11.604;2023-03-25T11:59:35;94768.53;;;13.40;100.00
13314;BME280;6725;48.112;11.604;2023-03-25T12:02:48;94783.03;;;13.53;100.00
13314;BME280;6725;48.112;11.604;2023-03-25T12:05:00;94760.56;;;13.71;100.00
13314;BME280;6725;48.112;11.604;2023-03-25T12:07:26;94760.44;;;13.49;100.00
13314;BME280;6725;48.112;11.604;2023-03-25T12:10:04;94763.31;;;13.83;100.00
13314;BME280;6725;48.112;11.604;2023-03-25T12:12:51;94741.97;;;14.12;100.00
13314;BME280;6725;48.112;11.604;2023-03-25T12:15:30;94755.72;;;13.75;100.00
13314;BME280;6725;48.112;11.604;2023-03-25T12:21:03;94750.00;;;13.32;100.00
13314;BME280;6725;48.112;11.604;2023-03-25T12:23:54;94737.56;;;13.27;100.00
13314;BME280;6725;48.112;11.604;2023-03-25T12:26:26;94750.94;;;13.25;100.00
13314;BME280;6725;48.112;11.604;2023-03-25T12:31:40;94751.22;;;13.02;100.00
13314;BME280;6725;48.112;11.604;2023-03-25T12:50:22;94758.44;;;13.37;100.00
13314;BME280;6725;48.112;11.604;2023-03-25T12:58:37;94752.22;;;13.87;100.00
13314;BME280;6725;48.112;11.604;2023-03-25T13:01:51;94745.75;;;13.93;100.00
13314;BME280;6725;48.112;11.604;2023-03-25T13:04:31;94742.22;;;13.80;100.00
13314;BME280;6725;48.112;11.604;2023-03-25T13:07:13;94753.31;;;14.02;100.00
13314;BME280;6725;48.112;11.604;2023-03-25T13:12:32;94745.16;;;13.61;100.00
13314;BME280;6725;48.112;11.604;2023-03-25T13:15:14;94718.63;;;13.58;100.00
13314;BME280;6725;48.112;11.604;2023-03-25T13:18:06;94765.63;;;12.90;100.00
13314;BME280;6725;48.112;11.604;2023-03-25T13:21:05;94743.94;;;12.67;100.00
13314;BME280;6725;48.112;11.604;2023-03-25T13:23:34;94760.22;;;12.86;100.00
13314;BME280;6725;48.112;11.604;2023-03-25T13:26:12;94755.75;;;13.21;100.00
13314;BME280;6725;48.112;11.604;2023-03-25T13:28:45;94762.03;;;12.93;100.00
13314;BME280;6725;48.112;11.604;2023-03-25T13:31:21;94756.63;;;12.61;100.00
13314;BME280;6725;48.112;11.604;2023-03-25T13:33:52;94756.31;;;12.43;100.00
13314;BME280;6725;48.112;11.604;2023-03-25T13:38:55;94765.47;;;12.52;100.00
13314;BME280;6725;48.112;11.604;2023-03-25T13:44:14;94771.50;;;12.60;100.00
13314;BME280;6725;48.112;11.604;2023-03-25T13:46:51;94768.97;;;12.37;100.00
13314;BME280;6725;48.112;11.604;2023-03-25T13:49:23;94764.47;;;12.30;100.00
13314;BME280;6725;48.112;11.604;2023-03-25T13:51:50;94734.41;;;12.43;100.00
13314;BME280;6725;48.112;11.604;2023-03-25T13:54:21;94757.31;;;12.49;100.00
13314;BME280;6725;48.112;11.604;2023-03-25T14:10:24;94732.75;;;12.17;100.00
13314;BME280;6725;48.112;11.604;2023-03-25T14:13:00;94757.88;;;12.12;100.00
13314;BME280;6725;48.112;11.604;2023-03-25T14:15:34;94740.34;;;11.93;100.00
13314;BME280;6725;48.112;11.604;2023-03-25T14:18:01;94759.06;;;12.11;100.00
13314;BME280;6725;48.112;11.604;2023-03-25T14:20:32;94754.47;;;12.24;100.00
13314;BME280;6725;48.112;11.604;2023-03-25T14:23:04;94749.06;;;12.20;100.00
13314;BME280;6725;48.112;11.604;2023-03-25T14:25:52;94759.75;;;11.99;100.00
13314;BME280;6725;48.112;11.604;2023-03-25T14:28:32;94756.59;;;12.16;100.00
13314;BME280;6725;48.112;11.604;2023-03-25T14:44:35;94750.25;;;12.35;100.00
13314;BME280;6725;48.112;11.604;2023-03-25T14:50:28;94747.81;;;12.53;100.00
13314;BME280;6725;48.112;11.604;2023-03-25T14:52:57;94748.16;;;12.55;100.00
13314;BME280;6725;48.112;11.604;2023-03-25T14:55:30;94745.84;;;12.54;100.00
13314;BME280;6725;48.112;11.604;2023-03-25T14:58:01;94728.06;;;12.46;100.00
13314;BME280;6725;48.112;11.604;2023-03-25T15:00:33;94707.88;;;12.40;100.00
13314;BME280;6725;48.112;11.604;2023-03-25T15:03:11;94731.88;;;12.20;100.00
13314;BME280;6725;48.112;11.604;2023-03-25T15:05:38;94734.59;;;12.36;100.00